createdAt,value
2019-03-10T00:00:23.963Z,0.00
2019-03-10T00:01:23.933Z,0.00
2019-03-10T00:02:23.900Z,0.00
2019-03-10T00:03:23.868Z,0.00
2019-03-10T00:04:23.835Z,0.00
2019-03-10T00:05:23.804Z,0.00
2019-03-10T00:06:23.773Z,0.00
2019-03-10T00:07:23.740Z,0.00
2019-03-10T00:08:23.709Z,0.00
2019-03-10T00:09:23.678Z,0.00
2019-03-10T00:10:23.648Z,0.00
2019-03-10T00:11:23.614Z,0.00
2019-03-10T00:12:23.582Z,0.00
2019-03-10T00:13:23.551Z,0.00
2019-03-10T00:14:23.519Z,0.00
2019-03-10T00:15:23.496Z,0.00
2019-03-10T00:16:23.455Z,0.00
2019-03-10T00:17:23.424Z,0.00
2019-03-10T00:18:23.393Z,0.00
2019-03-10T00:19:23.358Z,0.00
2019-03-10T00:20:23.329Z,0.00
2019-03-10T00:21:23.295Z,0.00
2019-03-10T00:22:23.266Z,0.00
2019-03-10T00:23:23.232Z,0.00
2019-03-10T00:24:23.201Z,0.00
2019-03-10T00:25:23.168Z,0.00
2019-03-10T00:26:23.139Z,0.00
2019-03-10T00:27:23.105Z,0.00
2019-03-10T00:28:23.073Z,0.00
2019-03-10T00:29:23.042Z,0.00
2019-03-10T00:30:23.012Z,0.00
2019-03-10T00:31:22.983Z,0.00
2019-03-10T00:32:22.947Z,0.00
2019-03-10T00:33:22.914Z,0.00
2019-03-10T00:34:22.884Z,0.00
2019-03-10T00:35:22.854Z,0.00
2019-03-10T00:36:22.819Z,0.00
2019-03-10T00:37:22.786Z,0.00
2019-03-10T00:38:22.756Z,0.00
2019-03-10T00:39:22.724Z,0.00
2019-03-10T00:40:22.693Z,0.00
2019-03-10T00:41:22.661Z,0.00
2019-03-10T00:42:22.629Z,0.00
2019-03-10T00:43:22.597Z,0.00
2019-03-10T00:44:22.567Z,0.00
2019-03-10T00:45:22.533Z,0.00
2019-03-10T00:46:22.502Z,0.00
2019-03-10T00:47:22.471Z,0.00
2019-03-10T00:48:22.438Z,0.00
2019-03-10T00:49:22.408Z,0.00
2019-03-10T00:50:22.377Z,0.00
2019-03-10T00:51:22.343Z,0.00
2019-03-10T00:52:22.312Z,0.00
2019-03-10T00:53:22.280Z,0.00
2019-03-10T00:54:22.250Z,0.00
2019-03-10T00:55:22.217Z,0.00
2019-03-10T00:56:22.186Z,0.00
2019-03-10T00:57:22.153Z,0.00
2019-03-10T00:58:22.126Z,0.00
2019-03-10T00:59:22.089Z,0.00
2019-03-10T01:00:22.063Z,0.00
2019-03-10T01:01:22.027Z,0.00
2019-03-10T01:02:21.998Z,0.00
2019-03-10T01:03:21.963Z,0.00
2019-03-10T01:04:21.931Z,0.00
2019-03-10T01:05:21.901Z,0.00
2019-03-10T01:06:21.869Z,0.00
2019-03-10T01:07:21.835Z,0.00
2019-03-10T01:08:21.807Z,0.00
2019-03-10T01:09:21.773Z,0.00
2019-03-10T01:10:21.741Z,0.00
2019-03-10T01:11:21.709Z,0.00
2019-03-10T01:12:21.678Z,0.00
2019-03-10T01:13:21.645Z,0.00
2019-03-10T01:14:21.615Z,0.00
2019-03-10T01:15:21.585Z,0.00
2019-03-10T01:16:21.551Z,0.00
2019-03-10T01:17:21.518Z,0.00
2019-03-10T01:18:21.489Z,0.00
2019-03-10T01:19:21.454Z,0.00
2019-03-10T01:20:21.423Z,0.00
2019-03-10T01:21:21.393Z,0.00
2019-03-10T01:22:21.360Z,0.00
2019-03-10T01:23:21.329Z,0.00
2019-03-10T01:24:21.319Z,0.00
2019-03-10T01:25:21.266Z,0.00
2019-03-10T01:26:21.233Z,0.00
2019-03-10T01:27:21.201Z,0.00
2019-03-10T01:28:21.167Z,0.00
2019-03-10T01:29:21.135Z,0.00
2019-03-10T01:30:21.111Z,0.00
2019-03-10T01:31:21.071Z,0.00
2019-03-10T01:32:21.040Z,0.00
2019-03-10T01:33:21.012Z,0.00
2019-03-10T01:34:20.978Z,0.00
2019-03-10T01:35:20.950Z,0.00
2019-03-10T01:36:20.916Z,0.00
2019-03-10T01:37:20.882Z,0.00
2019-03-10T01:38:20.853Z,0.00
2019-03-10T01:39:20.818Z,0.00
2019-03-10T01:40:20.785Z,0.00
2019-03-10T01:41:20.753Z,0.00
2019-03-10T01:42:20.729Z,0.00
2019-03-10T01:43:20.690Z,0.00
2019-03-10T01:44:20.657Z,0.00
2019-03-10T01:45:20.627Z,0.00
2019-03-10T01:46:20.597Z,0.00
2019-03-10T01:47:20.594Z,0.00
2019-03-10T01:48:20.531Z,0.00
2019-03-10T01:49:20.500Z,0.00
2019-03-10T01:50:20.470Z,0.00
2019-03-10T01:51:20.436Z,0.00
2019-03-10T01:52:20.405Z,0.00
2019-03-10T01:53:25.647Z,0.00
2019-03-10T01:54:20.373Z,0.00
2019-03-10T01:55:20.309Z,0.00
2019-03-10T01:56:20.279Z,0.00
2019-03-10T01:57:20.247Z,0.00
2019-03-10T01:58:20.215Z,0.00
2019-03-10T01:59:20.183Z,0.00
2019-03-10T02:00:20.154Z,0.00
2019-03-10T02:01:20.120Z,0.00
2019-03-10T02:02:25.751Z,0.00
2019-03-10T02:03:20.057Z,0.00
2019-03-10T02:04:20.026Z,0.00
2019-03-10T02:05:19.994Z,0.00
2019-03-10T02:06:19.963Z,0.00
2019-03-10T02:07:19.933Z,0.00
2019-03-10T02:08:19.900Z,0.00
2019-03-10T02:09:19.868Z,0.00
2019-03-10T02:10:19.836Z,0.00
2019-03-10T02:11:19.808Z,0.00
2019-03-10T02:12:19.774Z,0.00
2019-03-10T02:13:19.742Z,0.00
2019-03-10T02:14:19.717Z,0.00
2019-03-10T02:15:19.681Z,0.00
2019-03-10T02:16:19.649Z,0.00
2019-03-10T02:17:19.617Z,0.00
2019-03-10T02:18:19.588Z,0.00
2019-03-10T02:19:19.555Z,0.00
2019-03-10T02:20:19.524Z,0.00
2019-03-10T02:21:19.493Z,0.00
2019-03-10T02:22:19.463Z,0.00
2019-03-10T02:23:19.430Z,0.00
2019-03-10T02:24:23.661Z,0.00
2019-03-10T02:25:19.369Z,0.00
2019-03-10T02:26:19.338Z,0.00
2019-03-10T02:27:19.306Z,0.00
2019-03-10T02:28:19.275Z,0.00
2019-03-10T02:29:19.244Z,0.00
2019-03-10T02:30:19.215Z,0.00
2019-03-10T02:31:19.185Z,0.00
2019-03-10T02:32:19.162Z,0.00
2019-03-10T02:33:19.121Z,0.00
2019-03-10T02:34:19.094Z,0.00
2019-03-10T02:35:19.058Z,0.00
2019-03-10T02:36:19.028Z,0.00
2019-03-10T02:37:18.998Z,0.00
2019-03-10T02:38:18.966Z,0.00
2019-03-10T02:39:18.933Z,0.00
2019-03-10T02:40:18.912Z,0.00
2019-03-10T02:41:18.873Z,0.00
2019-03-10T02:42:18.843Z,0.00
2019-03-10T02:43:18.810Z,0.00
2019-03-10T02:44:18.780Z,0.00
2019-03-10T02:45:18.749Z,0.00
2019-03-10T02:46:18.719Z,0.00
2019-03-10T02:47:18.685Z,0.00
2019-03-10T02:48:18.655Z,0.00
2019-03-10T02:49:18.624Z,0.00
2019-03-10T02:50:18.594Z,0.00
2019-03-10T02:51:18.562Z,0.00
2019-03-10T02:52:18.567Z,0.00
2019-03-10T02:53:18.501Z,0.00
2019-03-10T02:54:18.470Z,0.00
2019-03-10T02:55:18.439Z,0.00
2019-03-10T02:56:18.408Z,0.00
2019-03-10T02:57:18.375Z,0.00
2019-03-10T02:58:18.353Z,0.00
2019-03-10T02:59:18.313Z,0.00
2019-03-10T03:00:18.290Z,0.00
2019-03-10T03:01:18.252Z,0.00
2019-03-10T03:02:18.246Z,0.00
2019-03-10T03:03:18.201Z,0.00
2019-03-10T03:04:18.158Z,0.00
2019-03-10T03:05:18.127Z,0.00
2019-03-10T03:06:18.096Z,0.00
2019-03-10T03:07:18.067Z,0.00
2019-03-10T03:08:18.036Z,0.00
2019-03-10T03:09:18.009Z,0.00
2019-03-10T03:10:17.971Z,0.00
2019-03-10T03:11:17.943Z,0.00
2019-03-10T03:12:17.910Z,0.00
2019-03-10T03:13:17.880Z,0.00
2019-03-10T03:14:17.857Z,0.00
2019-03-10T03:15:17.820Z,0.00
2019-03-10T03:16:17.830Z,0.00
2019-03-10T03:17:17.756Z,0.00
2019-03-10T03:18:17.723Z,0.00
2019-03-10T03:19:17.692Z,0.00
2019-03-10T03:20:17.726Z,0.00
2019-03-10T03:21:17.632Z,0.00
2019-03-10T03:22:17.601Z,0.00
2019-03-10T03:23:17.567Z,0.00
2019-03-10T03:24:17.537Z,0.00
2019-03-10T03:25:17.508Z,0.00
2019-03-10T03:26:17.482Z,0.00
2019-03-10T03:27:17.453Z,0.00
2019-03-10T03:28:17.420Z,0.00
2019-03-10T03:29:17.386Z,0.00
2019-03-10T03:30:17.354Z,0.00
2019-03-10T03:31:17.326Z,0.00
2019-03-10T03:32:17.292Z,0.00
2019-03-10T03:33:17.274Z,0.00
2019-03-10T03:34:17.232Z,0.00
2019-03-10T03:35:17.198Z,0.00
2019-03-10T03:36:17.170Z,0.00
2019-03-10T03:37:17.141Z,0.00
2019-03-10T03:38:17.119Z,0.00
2019-03-10T03:39:17.076Z,0.00
2019-03-10T03:40:17.043Z,0.00
2019-03-10T03:41:17.013Z,0.00
2019-03-10T03:42:16.984Z,0.00
2019-03-10T03:43:16.954Z,0.00
2019-03-10T03:44:16.921Z,0.00
2019-03-10T03:45:16.890Z,0.00
2019-03-10T03:46:16.862Z,0.00
2019-03-10T03:47:16.828Z,0.00
2019-03-10T03:48:16.799Z,0.00
2019-03-10T03:49:16.770Z,0.00
2019-03-10T03:50:16.740Z,0.00
2019-03-10T03:51:16.712Z,0.00
2019-03-10T03:52:16.683Z,0.00
2019-03-10T03:53:16.643Z,0.00
2019-03-10T03:54:16.614Z,0.00
2019-03-10T03:55:16.593Z,0.00
2019-03-10T03:56:16.560Z,0.00
2019-03-10T03:57:16.522Z,0.00
2019-03-10T03:58:16.497Z,0.00
2019-03-10T03:59:16.461Z,0.00
2019-03-10T04:00:16.443Z,0.00
2019-03-10T04:01:16.421Z,0.00
2019-03-10T04:02:16.373Z,0.00
2019-03-10T04:03:16.337Z,0.00
2019-03-10T04:04:16.316Z,0.00
2019-03-10T04:05:16.280Z,0.00
2019-03-10T04:06:16.249Z,0.00
2019-03-10T04:07:16.222Z,0.00
2019-03-10T04:08:16.196Z,0.00
2019-03-10T04:09:16.154Z,0.00
2019-03-10T04:10:16.129Z,0.00
2019-03-10T04:11:16.091Z,0.00
2019-03-10T04:12:16.061Z,0.00
2019-03-10T04:13:16.030Z,0.00
2019-03-10T04:14:15.999Z,0.00
2019-03-10T04:15:15.967Z,0.00
2019-03-10T04:16:15.938Z,0.00
2019-03-10T04:17:15.906Z,0.00
2019-03-10T04:18:15.876Z,0.00
2019-03-10T04:19:15.846Z,0.00
2019-03-10T04:20:15.813Z,0.00
2019-03-10T04:21:15.784Z,0.00
2019-03-10T04:22:15.753Z,0.00
2019-03-10T04:23:15.721Z,0.00
2019-03-10T04:24:15.690Z,0.00
2019-03-10T04:25:15.660Z,0.00
2019-03-10T04:26:15.631Z,0.00
2019-03-10T04:27:15.597Z,0.00
2019-03-10T04:28:15.567Z,0.00
2019-03-10T04:29:15.537Z,0.00
2019-03-10T04:30:15.506Z,0.00
2019-03-10T04:31:15.476Z,0.00
2019-03-10T04:32:15.444Z,0.00
2019-03-10T04:33:15.413Z,0.00
2019-03-10T04:34:15.389Z,0.00
2019-03-10T04:35:15.352Z,0.00
2019-03-10T04:36:15.321Z,0.00
2019-03-10T04:37:15.290Z,0.00
2019-03-10T04:38:15.259Z,0.00
2019-03-10T04:39:15.229Z,0.00
2019-03-10T04:40:15.197Z,0.00
2019-03-10T04:41:15.170Z,0.00
2019-03-10T04:42:15.140Z,0.00
2019-03-10T04:43:15.107Z,0.00
2019-03-10T04:44:15.075Z,0.00
2019-03-10T04:45:15.044Z,0.00
2019-03-10T04:46:15.035Z,0.00
2019-03-10T04:47:14.981Z,0.00
2019-03-10T04:48:14.960Z,0.00
2019-03-10T04:49:14.920Z,0.00
2019-03-10T04:50:16.411Z,0.00
2019-03-10T04:51:14.858Z,0.00
2019-03-10T04:52:14.828Z,0.00
2019-03-10T04:53:14.798Z,0.00
2019-03-10T04:54:14.767Z,0.00
2019-03-10T04:55:14.735Z,0.00
2019-03-10T04:56:14.709Z,0.00
2019-03-10T04:57:14.674Z,0.00
2019-03-10T04:58:14.644Z,0.00
2019-03-10T04:59:14.611Z,0.00
2019-03-10T05:00:14.580Z,0.00
2019-03-10T05:01:14.549Z,0.00
2019-03-10T05:02:14.518Z,0.00
2019-03-10T05:03:14.486Z,0.00
2019-03-10T05:04:14.457Z,0.00
2019-03-10T05:05:14.425Z,0.00
2019-03-10T05:06:14.397Z,4.00
2019-03-10T05:07:14.362Z,0.00
2019-03-10T05:08:14.333Z,0.00
2019-03-10T05:09:14.301Z,4.00
2019-03-10T05:10:14.270Z,4.00
2019-03-10T05:11:14.240Z,4.00
2019-03-10T05:12:14.207Z,4.00
2019-03-10T05:13:14.179Z,8.00
2019-03-10T05:14:14.146Z,8.00
2019-03-10T05:15:14.114Z,12.00
2019-03-10T05:16:14.083Z,12.00
2019-03-10T05:17:14.054Z,16.00
2019-03-10T05:18:14.021Z,16.00
2019-03-10T05:19:13.989Z,20.00
2019-03-10T05:20:13.959Z,24.00
2019-03-10T05:21:13.929Z,28.00
2019-03-10T05:22:13.897Z,28.00
2019-03-10T05:23:13.865Z,36.00
2019-03-10T05:24:13.834Z,44.00
2019-03-10T05:25:13.802Z,56.00
2019-03-10T05:26:13.772Z,64.00
2019-03-10T05:27:13.740Z,76.00
2019-03-10T05:28:13.708Z,88.00
2019-03-10T05:29:13.679Z,100.00
2019-03-10T05:30:13.648Z,116.00
2019-03-10T05:31:13.615Z,136.00
2019-03-10T05:32:13.584Z,160.00
2019-03-10T05:33:13.554Z,176.00
2019-03-10T05:34:13.525Z,196.00
2019-03-10T05:35:13.490Z,224.00
2019-03-10T05:36:13.458Z,244.00
2019-03-10T05:37:13.431Z,252.00
2019-03-10T05:38:13.397Z,264.00
2019-03-10T05:39:13.366Z,292.00
2019-03-10T05:40:13.335Z,300.00
2019-03-10T05:41:13.305Z,304.00
2019-03-10T05:42:13.277Z,296.00
2019-03-10T05:43:13.241Z,296.00
2019-03-10T05:44:13.214Z,292.00
2019-03-10T05:45:13.184Z,316.00
2019-03-10T05:46:13.148Z,364.00
2019-03-10T05:47:13.118Z,400.00
2019-03-10T05:48:13.086Z,464.00
2019-03-10T05:49:13.055Z,500.00
2019-03-10T05:50:13.024Z,548.00
2019-03-10T05:51:12.992Z,596.00
2019-03-10T05:52:12.962Z,664.00
2019-03-10T05:53:12.931Z,708.00
2019-03-10T05:54:12.899Z,740.00
2019-03-10T05:55:12.868Z,788.00
2019-03-10T05:56:12.837Z,820.00
2019-03-10T05:57:12.807Z,852.00
2019-03-10T05:58:12.777Z,880.00
2019-03-10T05:59:12.746Z,968.00
2019-03-10T06:00:12.714Z,1084.00
2019-03-10T06:01:12.686Z,1184.00
2019-03-10T06:02:12.654Z,1276.00
2019-03-10T06:03:12.621Z,1424.00
2019-03-10T06:04:12.592Z,1504.00
2019-03-10T06:05:12.564Z,1580.00
2019-03-10T06:06:12.531Z,1624.00
2019-03-10T06:07:12.501Z,1792.00
2019-03-10T06:08:12.469Z,2032.00
2019-03-10T06:09:12.440Z,2192.00
2019-03-10T06:10:12.409Z,2360.00
2019-03-10T06:11:12.379Z,2412.00
2019-03-10T06:12:12.348Z,2584.00
2019-03-10T06:13:12.318Z,2712.00
2019-03-10T06:14:12.286Z,2744.00
2019-03-10T06:15:12.256Z,2728.00
2019-03-10T06:16:12.227Z,2852.00
2019-03-10T06:17:12.195Z,2972.00
2019-03-10T06:18:13.944Z,3156.00
2019-03-10T06:19:12.139Z,3444.00
2019-03-10T06:20:12.105Z,3744.00
2019-03-10T06:21:12.073Z,4008.00
2019-03-10T06:22:12.043Z,4200.00
2019-03-10T06:23:12.015Z,4336.00
2019-03-10T06:24:11.982Z,4448.00
2019-03-10T06:25:11.966Z,4496.00
2019-03-10T06:26:11.922Z,4444.00
2019-03-10T06:27:11.890Z,4340.00
2019-03-10T06:28:11.860Z,4200.00
2019-03-10T06:29:11.832Z,4176.00
2019-03-10T06:30:11.801Z,4200.00
2019-03-10T06:31:11.770Z,4220.00
2019-03-10T06:32:11.739Z,4376.00
2019-03-10T06:33:11.711Z,4668.00
2019-03-10T06:34:11.686Z,4980.00
2019-03-10T06:35:11.649Z,5304.00
2019-03-10T06:36:11.616Z,5680.00
2019-03-10T06:37:11.588Z,6040.00
2019-03-10T06:38:11.563Z,6280.00
2019-03-10T06:39:11.526Z,6412.00
2019-03-10T06:40:11.496Z,6492.00
2019-03-10T06:41:11.465Z,6560.00
2019-03-10T06:42:11.435Z,6648.00
2019-03-10T06:43:11.404Z,6688.00
2019-03-10T06:44:11.375Z,6656.00
2019-03-10T06:45:11.343Z,6632.00
2019-03-10T06:46:11.313Z,6636.00
2019-03-10T06:47:11.283Z,6704.00
2019-03-10T06:48:11.254Z,6860.00
2019-03-10T06:49:11.223Z,7096.00
2019-03-10T06:50:12.422Z,7468.00
2019-03-10T06:51:11.162Z,7488.00
2019-03-10T06:52:11.132Z,7408.00
2019-03-10T06:53:11.102Z,7140.00
2019-03-10T06:54:11.074Z,6840.00
2019-03-10T06:55:11.102Z,6544.00
2019-03-10T06:56:11.013Z,6460.00
2019-03-10T06:57:10.987Z,6520.00
2019-03-10T06:58:10.952Z,6252.00
2019-03-10T06:59:10.920Z,7112.00
2019-03-10T07:00:10.891Z,6072.00
2019-03-10T07:01:10.863Z,5720.00
2019-03-10T07:02:10.831Z,6368.00
2019-03-10T07:03:10.802Z,6332.00
2019-03-10T07:04:10.772Z,6696.00
2019-03-10T07:05:10.741Z,7144.00
2019-03-10T07:06:10.712Z,6964.00
2019-03-10T07:07:10.681Z,9184.00
2019-03-10T07:08:10.652Z,10748.00
2019-03-10T07:09:10.622Z,12364.00
2019-03-10T07:10:10.591Z,12408.00
2019-03-10T07:11:10.564Z,12480.00
2019-03-10T07:12:10.533Z,12828.00
2019-03-10T07:13:10.505Z,11812.00
2019-03-10T07:14:10.476Z,7932.00
2019-03-10T07:15:10.449Z,9312.00
2019-03-10T07:16:10.418Z,8280.00
2019-03-10T07:17:10.388Z,8368.00
2019-03-10T07:18:10.361Z,8952.00
2019-03-10T07:19:10.331Z,9712.00
2019-03-10T07:20:10.307Z,14904.00
2019-03-10T07:21:10.286Z,13760.00
2019-03-10T07:22:10.248Z,15112.00
2019-03-10T07:23:10.221Z,12260.00
2019-03-10T07:24:10.191Z,13380.00
2019-03-10T07:25:10.163Z,12756.00
2019-03-10T07:26:10.136Z,14232.00
2019-03-10T07:27:10.113Z,10156.00
2019-03-10T07:28:10.079Z,11908.00
2019-03-10T07:29:10.052Z,9096.00
2019-03-10T07:30:10.026Z,7656.00
2019-03-10T07:31:09.997Z,7960.00
2019-03-10T07:32:09.973Z,7872.00
2019-03-10T07:33:09.950Z,8368.00
2019-03-10T07:34:09.915Z,7108.00
2019-03-10T07:35:09.887Z,7568.00
2019-03-10T07:36:09.858Z,8920.00
2019-03-10T07:37:09.839Z,8992.00
2019-03-10T07:38:09.807Z,12340.00
2019-03-10T07:39:09.825Z,9540.00
2019-03-10T07:40:09.747Z,10276.00
2019-03-10T07:41:09.724Z,9924.00
2019-03-10T07:42:09.692Z,17728.00
2019-03-10T07:43:09.664Z,20416.00
2019-03-10T07:44:09.636Z,20224.00
2019-03-10T07:45:09.608Z,20736.00
2019-03-10T07:46:09.584Z,20096.00
2019-03-10T07:47:09.554Z,20768.00
2019-03-10T07:48:09.527Z,24704.00
2019-03-10T07:49:09.499Z,23392.00
2019-03-10T07:50:09.486Z,23936.00
2019-03-10T07:51:09.451Z,25120.00
2019-03-10T07:52:19.559Z,25728.00
2019-03-10T07:53:09.396Z,26432.00
2019-03-10T07:54:09.375Z,26688.00
2019-03-10T07:55:09.346Z,25760.00
2019-03-10T07:56:11.425Z,26112.00
2019-03-10T07:57:09.297Z,26816.00
2019-03-10T07:58:09.271Z,26432.00
2019-03-10T07:59:09.249Z,21248.00
2019-03-10T08:00:09.221Z,27584.00
2019-03-10T08:01:09.195Z,26720.00
2019-03-10T08:02:09.172Z,27232.00
2019-03-10T08:03:09.150Z,27488.00
2019-03-10T08:04:09.122Z,27392.00
2019-03-10T08:05:09.098Z,26976.00
2019-03-10T08:06:09.075Z,26208.00
2019-03-10T08:07:09.051Z,26112.00
2019-03-10T08:08:09.028Z,26624.00
2019-03-10T08:09:09.003Z,26976.00
2019-03-10T08:10:08.980Z,27264.00
2019-03-10T08:11:08.956Z,27744.00
2019-03-10T08:12:08.933Z,28768.00
2019-03-10T08:13:08.910Z,30496.00
2019-03-10T08:14:08.886Z,33120.00
2019-03-10T08:15:08.864Z,34912.00
2019-03-10T08:16:08.838Z,30816.00
2019-03-10T08:17:08.815Z,36960.00
2019-03-10T08:18:08.793Z,16568.00
2019-03-10T08:19:08.770Z,38336.00
2019-03-10T08:20:08.745Z,24736.00
2019-03-10T08:21:08.722Z,14520.00
2019-03-10T08:22:08.699Z,16484.00
2019-03-10T08:23:08.675Z,11188.00
2019-03-10T08:24:08.652Z,13024.00
2019-03-10T08:25:08.632Z,28000.00
2019-03-10T08:26:08.604Z,30816.00
2019-03-10T08:27:08.881Z,24288.00
2019-03-10T08:28:08.556Z,24704.00
2019-03-10T08:29:08.533Z,28928.00
2019-03-10T08:30:08.507Z,41440.00
2019-03-10T08:31:08.483Z,31360.00
2019-03-10T08:32:08.458Z,41600.00
2019-03-10T08:33:08.436Z,25920.00
2019-03-10T08:34:08.413Z,18016.00
2019-03-10T08:35:08.395Z,16936.00
2019-03-10T08:36:08.364Z,28576.00
2019-03-10T08:37:08.340Z,36416.00
2019-03-10T08:38:08.316Z,24576.00
2019-03-10T08:39:08.293Z,39328.00
2019-03-10T08:40:08.268Z,42432.00
2019-03-10T08:41:08.245Z,43040.00
2019-03-10T08:42:08.222Z,38688.00
2019-03-10T08:43:08.197Z,31104.00
2019-03-10T08:44:08.174Z,31840.00
2019-03-10T08:45:08.168Z,24480.00
2019-03-10T08:46:08.127Z,40064.00
2019-03-10T08:47:08.103Z,42144.00
2019-03-10T08:48:08.081Z,29088.00
2019-03-10T08:49:08.059Z,29984.00
2019-03-10T08:50:08.034Z,28800.00
2019-03-10T08:51:08.011Z,43392.00
2019-03-10T08:52:07.989Z,36416.00
2019-03-10T08:53:07.966Z,36384.00
2019-03-10T08:54:07.942Z,31648.00
2019-03-10T08:55:07.917Z,30720.00
2019-03-10T08:56:07.896Z,39200.00
2019-03-10T08:57:07.872Z,34144.00
2019-03-10T08:58:07.849Z,32608.00
2019-03-10T08:59:07.824Z,33280.00
2019-03-10T09:00:07.800Z,28128.00
2019-03-10T09:01:10.100Z,29888.00
2019-03-10T09:02:07.755Z,32480.00
2019-03-10T09:03:07.731Z,26848.00
2019-03-10T09:04:07.707Z,24256.00
2019-03-10T09:05:07.685Z,24992.00
2019-03-10T09:06:07.661Z,27040.00
2019-03-10T09:07:07.636Z,29504.00
2019-03-10T09:08:07.613Z,30112.00
2019-03-10T09:09:07.588Z,29792.00
2019-03-10T09:10:07.564Z,28800.00
2019-03-10T09:11:07.540Z,29152.00
2019-03-10T09:12:07.532Z,31264.00
2019-03-10T09:13:07.489Z,32160.00
2019-03-10T09:14:07.467Z,32064.00
2019-03-10T09:15:07.441Z,30208.00
2019-03-10T09:16:07.416Z,29088.00
2019-03-10T09:17:07.392Z,26976.00
2019-03-10T09:18:07.367Z,24000.00
2019-03-10T09:19:07.347Z,21216.00
2019-03-10T09:20:07.317Z,17440.00
2019-03-10T09:21:07.292Z,13804.00
2019-03-10T09:22:07.268Z,12420.00
2019-03-10T09:23:07.241Z,13408.00
2019-03-10T09:24:07.218Z,15496.00
2019-03-10T09:25:07.191Z,17760.00
2019-03-10T09:26:07.166Z,19456.00
2019-03-10T09:27:07.139Z,20512.00
2019-03-10T09:28:07.113Z,20800.00
2019-03-10T09:29:07.099Z,19776.00
2019-03-10T09:30:07.065Z,16988.00
2019-03-10T09:31:07.036Z,14156.00
2019-03-10T09:32:07.010Z,12140.00
2019-03-10T09:33:06.985Z,11724.00
2019-03-10T09:34:06.960Z,12808.00
2019-03-10T09:35:06.934Z,13300.00
2019-03-10T09:36:06.907Z,12684.00
2019-03-10T09:37:06.881Z,13756.00
2019-03-10T09:38:06.856Z,16028.00
2019-03-10T09:39:06.828Z,17792.00
2019-03-10T09:40:06.801Z,17632.00
2019-03-10T09:41:06.775Z,16012.00
2019-03-10T09:42:06.747Z,14364.00
2019-03-10T09:43:06.722Z,13944.00
2019-03-10T09:44:06.795Z,15320.00
2019-03-10T09:45:06.668Z,15916.00
2019-03-10T09:46:06.643Z,14656.00
2019-03-10T09:47:06.614Z,13256.00
2019-03-10T09:48:06.589Z,12064.00
2019-03-10T09:49:06.564Z,11396.00
2019-03-10T09:50:06.537Z,11272.00
2019-03-10T09:51:06.508Z,10864.00
2019-03-10T09:52:06.535Z,10048.00
2019-03-10T09:53:06.457Z,10056.00
2019-03-10T09:54:06.481Z,12080.00
2019-03-10T09:55:06.402Z,15108.00
2019-03-10T09:56:06.374Z,16884.00
2019-03-10T09:57:06.351Z,17472.00
2019-03-10T09:58:06.321Z,17984.00
2019-03-10T09:59:06.294Z,18016.00
2019-03-10T10:00:06.270Z,17344.00
2019-03-10T10:01:06.239Z,17792.00
2019-03-10T10:02:06.213Z,19072.00
2019-03-10T10:03:06.185Z,19968.00
2019-03-10T10:04:06.157Z,20448.00
2019-03-10T10:05:06.131Z,20960.00
2019-03-10T10:06:06.105Z,21408.00
2019-03-10T10:07:06.077Z,20896.00
2019-03-10T10:08:06.051Z,19872.00
2019-03-10T10:09:06.023Z,19264.00
2019-03-10T10:10:05.996Z,18848.00
2019-03-10T10:11:05.969Z,17888.00
2019-03-10T10:12:13.378Z,17312.00
2019-03-10T10:13:05.916Z,17600.00
2019-03-10T10:14:05.890Z,17792.00
2019-03-10T10:15:05.861Z,17856.00
2019-03-10T10:16:05.837Z,19296.00
2019-03-10T10:17:05.811Z,21600.00
2019-03-10T10:18:05.784Z,22720.00
2019-03-10T10:19:05.755Z,23360.00
2019-03-10T10:20:05.732Z,24000.00
2019-03-10T10:21:05.702Z,24800.00
2019-03-10T10:22:05.677Z,25440.00
2019-03-10T10:23:05.649Z,25696.00
2019-03-10T10:24:05.625Z,24992.00
2019-03-10T10:25:05.598Z,25280.00
2019-03-10T10:26:05.569Z,26528.00
2019-03-10T10:27:05.545Z,27776.00
2019-03-10T10:28:05.518Z,28032.00
2019-03-10T10:29:05.492Z,29760.00
2019-03-10T10:30:05.465Z,30432.00
2019-03-10T10:31:05.438Z,32832.00
2019-03-10T10:32:05.411Z,29600.00
2019-03-10T10:33:05.386Z,28128.00
2019-03-10T10:34:05.363Z,28672.00
2019-03-10T10:35:05.332Z,30016.00
2019-03-10T10:36:05.307Z,30272.00
2019-03-10T10:37:05.282Z,30368.00
2019-03-10T10:38:05.256Z,30848.00
2019-03-10T10:39:05.235Z,31712.00
2019-03-10T10:40:05.204Z,32480.00
2019-03-10T10:41:05.177Z,32896.00
2019-03-10T10:42:05.152Z,33088.00
2019-03-10T10:43:05.126Z,32832.00
2019-03-10T10:44:05.099Z,32672.00
2019-03-10T10:45:05.073Z,30848.00
2019-03-10T10:46:05.048Z,29664.00
2019-03-10T10:47:05.023Z,28224.00
2019-03-10T10:48:04.994Z,28512.00
2019-03-10T10:49:04.974Z,30976.00
2019-03-10T10:50:04.948Z,31296.00
2019-03-10T10:51:04.925Z,35232.00
2019-03-10T10:52:04.890Z,36768.00
2019-03-10T10:53:04.877Z,34176.00
2019-03-10T10:54:04.841Z,33664.00
2019-03-10T10:55:04.824Z,43072.00
2019-03-10T10:56:04.837Z,31008.00
2019-03-10T10:57:04.778Z,30720.00
2019-03-10T10:58:05.630Z,26176.00
2019-03-10T10:59:04.713Z,26272.00
2019-03-10T11:00:04.687Z,25920.00
2019-03-10T11:01:04.661Z,24864.00
2019-03-10T11:02:04.638Z,23776.00
2019-03-10T11:03:04.611Z,25024.00
2019-03-10T11:04:04.584Z,30144.00
2019-03-10T11:05:04.562Z,33504.00
2019-03-10T11:06:04.535Z,35392.00
2019-03-10T11:07:04.509Z,45408.00
2019-03-10T11:08:04.484Z,42048.00
2019-03-10T11:09:04.461Z,48800.00
2019-03-10T11:10:04.437Z,42848.00
2019-03-10T11:11:04.418Z,41952.00
2019-03-10T11:12:04.384Z,40544.00
2019-03-10T11:13:04.359Z,47840.00
2019-03-10T11:14:04.335Z,40416.00
2019-03-10T11:15:04.312Z,36640.00
2019-03-10T11:16:04.286Z,34464.00
2019-03-10T11:17:04.261Z,33344.00
2019-03-10T11:18:09.303Z,32960.00
2019-03-10T11:19:04.212Z,30976.00
2019-03-10T11:20:04.186Z,28608.00
2019-03-10T11:21:04.166Z,26944.00
2019-03-10T11:22:04.143Z,26624.00
2019-03-10T11:23:04.112Z,25984.00
2019-03-10T11:24:04.091Z,25888.00
2019-03-10T11:25:04.069Z,26976.00
2019-03-10T11:26:04.038Z,28256.00
2019-03-10T11:27:04.013Z,28800.00
2019-03-10T11:28:03.989Z,27744.00
2019-03-10T11:29:04.138Z,27136.00
2019-03-10T11:30:03.942Z,26912.00
2019-03-10T11:31:03.919Z,27776.00
2019-03-10T11:32:03.893Z,28928.00
2019-03-10T11:33:03.869Z,28704.00
2019-03-10T11:34:03.845Z,27232.00
2019-03-10T11:35:03.821Z,25888.00
2019-03-10T11:36:03.792Z,26976.00
2019-03-10T11:37:03.769Z,29312.00
2019-03-10T11:38:03.743Z,30784.00
2019-03-10T11:39:03.723Z,31840.00
2019-03-10T11:40:03.702Z,32064.00
2019-03-10T11:41:03.671Z,32224.00
2019-03-10T11:42:03.649Z,32256.00
2019-03-10T11:43:03.626Z,32800.00
2019-03-10T11:44:03.596Z,34880.00
2019-03-10T11:45:03.577Z,37504.00
2019-03-10T11:46:03.549Z,39808.00
2019-03-10T11:47:03.524Z,38816.00
2019-03-10T11:48:03.499Z,37056.00
2019-03-10T11:49:03.475Z,36320.00
2019-03-10T11:50:03.454Z,34560.00
2019-03-10T11:51:03.427Z,34016.00
2019-03-10T11:52:03.401Z,33056.00
2019-03-10T11:53:03.377Z,35776.00
2019-03-10T11:54:03.353Z,33024.00
2019-03-10T11:55:03.370Z,32480.00
2019-03-10T11:56:03.303Z,31264.00
2019-03-10T11:57:03.280Z,28384.00
2019-03-10T11:58:03.254Z,27456.00
2019-03-10T11:59:03.233Z,26624.00
2019-03-10T12:00:03.209Z,25504.00
2019-03-10T12:01:03.188Z,23360.00
2019-03-10T12:02:03.160Z,21536.00
2019-03-10T12:03:03.134Z,19072.00
2019-03-10T12:04:03.110Z,16584.00
2019-03-10T12:05:03.085Z,14372.00
2019-03-10T12:06:03.062Z,12080.00
2019-03-10T12:07:03.035Z,10272.00
2019-03-10T12:08:03.011Z,9384.00
2019-03-10T12:09:02.985Z,9468.00
2019-03-10T12:10:02.961Z,10124.00
2019-03-10T12:11:02.933Z,10764.00
2019-03-10T12:12:02.908Z,11412.00
2019-03-10T12:13:02.886Z,12220.00
2019-03-10T12:14:02.864Z,13472.00
2019-03-10T12:15:02.846Z,14800.00
2019-03-10T12:16:02.807Z,16320.00
2019-03-10T12:17:02.782Z,17888.00
2019-03-10T12:18:02.756Z,19584.00
2019-03-10T12:19:02.802Z,21408.00
2019-03-10T12:20:02.705Z,22912.00
2019-03-10T12:21:02.679Z,24096.00
2019-03-10T12:22:02.656Z,24992.00
2019-03-10T12:23:02.626Z,24640.00
2019-03-10T12:24:02.601Z,22976.00
2019-03-10T12:25:02.576Z,20928.00
2019-03-10T12:26:02.550Z,19520.00
2019-03-10T12:27:02.523Z,19072.00